Time;durP1;ratioP1;P1;durP2;ratioP2;P2;SDS_P1;SDS_P2;PMS_P1;PMS_P2;Temp;Humidity;BMP_temperature;BMP_pressure;BME280_temperature;BME280_humidity;BME280_pressure;Samples;Min_cycle;Max_cycle;Signal;HPM_P1;HPM_P2
2021/04/17 00:01:34;;;;;;;8.63;6.35;;;;;;;;;;5026494;28;20104;-67
2021/04/17 00:04:02;;;;;;;10.73;7.78;;;;;;;;;;5015203;28;20061;-67
2021/04/17 00:06:28;;;;;;;10.38;7.95;;;;;;;;;;5013988;28;20245;-66
2021/04/17 00:08:54;;;;;;;8.70;7.25;;;;;;;;;;5014793;28;20489;-67
2021/04/17 00:11:20;;;;;;;8.95;6.95;;;;;;;;;;5034164;28;20077;-67
2021/04/17 00:13:46;;;;;;;12.23;7.82;;;;;;;;;;5034686;28;20108;-67
2021/04/17 00:16:16;;;;;;;10.05;7.30;;;;;;;;;;5033752;28;20071;-67
2021/04/17 00:18:43;;;;;;;9.18;7.15;;;;;;;;;;5034425;28;20079;-67
2021/04/17 00:21:09;;;;;;;11.07;8.30;;;;;;;;;;5031641;28;20077;-67
2021/04/17 00:23:35;;;;;;;8.65;7.50;;;;;;;;;;5014687;28;20445;-67
2021/04/17 00:26:02;;;;;;;9.23;7.50;;;;;;;;;;5013849;28;20072;-67
2021/04/17 00:28:28;;;;;;;9.80;7.55;;;;;;;;;;5014401;28;20054;-67
2021/04/17 00:30:55;;;;;;;11.38;7.65;;;;;;;;;;5014493;28;20050;-67
2021/04/17 00:33:22;;;;;;;9.13;7.13;;;;;;;;;;5013302;28;20046;-67
2021/04/17 00:35:48;;;;;;;10.13;7.20;;;;;;;;;;5013761;28;20049;-67
2021/04/17 00:38:14;;;;;;;8.88;7.47;;;;;;;;;;5014289;28;20468;-67
2021/04/17 00:40:40;;;;;;;9.98;7.95;;;;;;;;;;5027613;28;20119;-67
2021/04/17 00:43:06;;;;;;;7.72;6.93;;;;;;;;;;5022230;28;20522;-67
2021/04/17 00:45:33;;;;;;;12.65;8.10;;;;;;;;;;5033237;28;21070;-67
2021/04/17 00:47:59;;;;;;;8.18;6.70;;;;;;;;;;5033965;28;20516;-67
2021/04/17 00:50:25;;;;;;;9.50;7.30;;;;;;;;;;5022507;28;20045;-68
2021/04/17 00:52:53;;;;;;;8.90;7.65;;;;;;;;;;5012576;28;20103;-68
2021/04/17 00:55:19;;;;;;;8.93;7.95;;;;;;;;;;5012151;28;20049;-68
2021/04/17 00:57:45;;;;;;;9.00;7.35;;;;;;;;;;5015968;28;20046;-68
2021/04/17 01:00:14;;;;;;;10.00;7.50;;;;;;;;;;5033679;28;20099;-68
2021/04/17 01:03:00;;;;;;;8.60;7.32;;;;;;;;;;5033541;28;20130;-68
2021/04/17 01:05:27;;;;;;;9.45;7.22;;;;;;;;;;5031512;28;20050;-68
2021/04/17 01:07:53;;;;;;;8.65;7.40;;;;;;;;;;5013195;28;20554;-67
2021/04/17 01:10:40;;;;;;;9.25;7.72;;;;;;;;;;4996813;28;20472;-67
2021/04/17 01:13:06;;;;;;;9.73;8.27;;;;;;;;;;5012504;28;20092;-67
2021/04/17 01:15:32;;;;;;;10.35;8.43;;;;;;;;;;4995392;28;20053;-67
2021/04/17 01:17:58;;;;;;;10.88;7.68;;;;;;;;;;5013122;28;20508;-67
2021/04/17 01:20:46;;;;;;;8.93;6.82;;;;;;;;;;5013672;28;20071;-67
2021/04/17 01:23:33;;;;;;;9.05;7.38;;;;;;;;;;4997660;28;20571;-67
2021/04/17 01:26:01;;;;;;;10.07;7.35;;;;;;;;;;5012800;28;20049;-67
2021/04/17 01:28:30;;;;;;;8.60;7.63;;;;;;;;;;5020819;28;20449;-67
2021/04/17 01:30:57;;;;;;;10.95;8.15;;;;;;;;;;5031976;28;20500;-68
2021/04/17 01:33:26;;;;;;;9.95;8.07;;;;;;;;;;5012331;28;20049;-67
2021/04/17 01:35:53;;;;;;;10.90;8.27;;;;;;;;;;4995600;28;20046;-67
2021/04/17 01:38:27;;;;;;;12.00;7.93;;;;;;;;;;5012433;28;20104;-68
2021/04/17 01:41:04;;;;;;;11.52;8.60;;;;;;;;;;4996942;28;20046;-67
2021/04/17 01:43:31;;;;;;;12.23;9.07;;;;;;;;;;4996552;28;20053;-67
2021/04/17 01:46:07;;;;;;;10.57;8.30;;;;;;;;;;5012466;28;20054;-67
2021/04/17 01:48:34;;;;;;;9.48;8.00;;;;;;;;;;4995691;28;20065;-67
2021/04/17 01:51:01;;;;;;;10.40;8.55;;;;;;;;;;5020599;28;20084;-67
2021/04/17 01:53:29;;;;;;;9.88;8.57;;;;;;;;;;5012866;28;20060;-67
2021/04/17 01:55:55;;;;;;;11.40;9.25;;;;;;;;;;5012550;28;20104;-67
2021/04/17 01:58:27;;;;;;;11.57;9.20;;;;;;;;;;4995724;28;20074;-67
2021/04/17 02:00:55;;;;;;;11.60;8.80;;;;;;;;;;5011523;28;20568;-67
2021/04/17 02:03:21;;;;;;;13.73;9.00;;;;;;;;;;5012438;28;20073;-67
2021/04/17 02:05:51;;;;;;;13.23;9.10;;;;;;;;;;5011966;28;20053;-67
2021/04/17 02:08:18;;;;;;;11.35;8.45;;;;;;;;;;5012849;28;20089;-67
2021/04/17 02:10:45;;;;;;;11.65;8.85;;;;;;;;;;5012453;28;20041;-67
2021/04/17 02:13:11;;;;;;;11.75;9.38;;;;;;;;;;5012558;28;20049;-67
2021/04/17 02:15:38;;;;;;;12.68;8.63;;;;;;;;;;5010656;28;20491;-67
2021/04/17 02:18:34;;;;;;;11.27;9.38;;;;;;;;;;5011393;28;20100;-67
2021/04/17 02:21:04;;;;;;;10.30;9.05;;;;;;;;;;5011095;28;20045;-67
2021/04/17 02:23:30;;;;;;;13.23;9.45;;;;;;;;;;5012418;28;20088;-67
2021/04/17 02:25:57;;;;;;;11.27;8.10;;;;;;;;;;4994166;28;20497;-67
2021/04/17 02:28:25;;;;;;;12.30;9.43;;;;;;;;;;5012158;28;20045;-67
2021/04/17 02:30:51;;;;;;;13.35;8.77;;;;;;;;;;5012261;28;20093;-67
2021/04/17 02:33:17;;;;;;;11.90;9.13;;;;;;;;;;5011032;28;20054;-67
2021/04/17 02:35:43;;;;;;;11.82;9.30;;;;;;;;;;5011355;28;20132;-67
2021/04/17 02:38:10;;;;;;;12.40;8.85;;;;;;;;;;5012715;28;20559;-67
2021/04/17 02:40:36;;;;;;;11.10;8.55;;;;;;;;;;5011984;28;20197;-67
2021/04/17 02:43:02;;;;;;;13.60;9.02;;;;;;;;;;5013256;28;20081;-67
2021/04/17 02:45:28;;;;;;;11.65;9.40;;;;;;;;;;5013802;28;20046;-67
2021/04/17 02:47:54;;;;;;;12.52;9.13;;;;;;;;;;5013061;28;20096;-67
2021/04/17 02:50:20;;;;;;;11.77;9.68;;;;;;;;;;5011990;28;20046;-67
2021/04/17 02:52:48;;;;;;;11.25;9.18;;;;;;;;;;5011872;28;20529;-67
2021/04/17 02:55:15;;;;;;;13.68;10.18;;;;;;;;;;5011483;28;20092;-67
2021/04/17 02:57:41;;;;;;;10.75;9.32;;;;;;;;;;5011510;28;20049;-67
2021/04/17 03:00:08;;;;;;;13.57;10.52;;;;;;;;;;5011852;28;20096;-67
2021/04/17 03:02:34;;;;;;;11.95;9.43;;;;;;;;;;5011855;28;20050;-67
2021/04/17 03:05:01;;;;;;;10.85;9.75;;;;;;;;;;5012309;28;20054;-67
2021/04/17 03:07:27;;;;;;;15.30;10.40;;;;;;;;;;5011038;28;20448;-67
2021/04/17 03:09:53;;;;;;;15.70;12.73;;;;;;;;;;5011743;28;20050;-67
2021/04/17 03:12:19;;;;;;;18.20;15.20;;;;;;;;;;5011709;28;20456;-67
2021/04/17 03:14:45;;;;;;;21.60;19.17;;;;;;;;;;5011389;28;20081;-67
2021/04/17 03:17:11;;;;;;;20.73;17.88;;;;;;;;;;5015296;28;20050;-67
2021/04/17 03:19:38;;;;;;;15.80;14.10;;;;;;;;;;5026806;28;20053;-67
2021/04/17 03:22:04;;;;;;;15.27;13.60;;;;;;;;;;5035815;28;20056;-67
2021/04/17 03:24:30;;;;;;;16.38;13.55;;;;;;;;;;5035276;28;20088;-67
2021/04/17 03:26:56;;;;;;;13.98;11.07;;;;;;;;;;5034729;28;20046;-67
2021/04/17 03:29:22;;;;;;;10.48;9.15;;;;;;;;;;5025953;28;20100;-67
2021/04/17 03:31:48;;;;;;;11.07;9.77;;;;;;;;;;5015557;28;20465;-67
2021/04/17 03:34:14;;;;;;;16.60;10.30;;;;;;;;;;5015441;28;20053;-66
2021/04/17 03:36:40;;;;;;;12.00;9.95;;;;;;;;;;5014963;28;20089;-66
2021/04/17 03:39:07;;;;;;;13.45;11.15;;;;;;;;;;5016154;28;20096;-67
2021/04/17 03:41:33;;;;;;;12.85;10.88;;;;;;;;;;5015316;28;20093;-66
2021/04/17 03:43:59;;;;;;;14.38;10.90;;;;;;;;;;5015499;28;20100;-66
2021/04/17 03:46:25;;;;;;;13.15;10.70;;;;;;;;;;5014663;28;20081;-66
2021/04/17 03:48:51;;;;;;;14.65;10.65;;;;;;;;;;5032865;28;20057;-66
2021/04/17 03:51:17;;;;;;;14.75;11.98;;;;;;;;;;5034949;28;20049;-66
2021/04/17 03:53:43;;;;;;;12.70;10.45;;;;;;;;;;5034706;28;20416;-67
2021/04/17 03:56:09;;;;;;;17.48;11.18;;;;;;;;;;5034169;28;20054;-67
2021/04/17 03:58:36;;;;;;;15.10;11.38;;;;;;;;;;5034028;28;20057;-66
2021/04/17 04:01:03;;;;;;;12.15;10.20;;;;;;;;;;5023815;28;20052;-67
2021/04/17 04:03:29;;;;;;;13.10;10.50;;;;;;;;;;5015189;28;20050;-66
2021/04/17 04:05:55;;;;;;;14.25;11.27;;;;;;;;;;5014293;28;20472;-67
2021/04/17 04:08:21;;;;;;;13.93;10.77;;;;;;;;;;5026783;28;20467;-67
2021/04/17 04:10:47;;;;;;;15.20;11.73;;;;;;;;;;5036973;28;20095;-66
2021/04/17 04:13:13;;;;;;;14.77;11.07;;;;;;;;;;5037027;28;20107;-66
2021/04/17 04:15:39;;;;;;;13.52;11.15;;;;;;;;;;5045146;28;20064;-67
2021/04/17 04:18:06;;;;;;;13.55;10.70;;;;;;;;;;5045999;28;20475;-66
2021/04/17 04:20:32;;;;;;;15.23;10.82;;;;;;;;;;5040960;28;20037;-67
2021/04/17 04:23:00;;;;;;;16.48;11.80;;;;;;;;;;5034790;28;20099;-67
2021/04/17 04:25:27;;;;;;;16.45;11.88;;;;;;;;;;5033725;28;20053;-67
2021/04/17 04:27:53;;;;;;;15.10;11.57;;;;;;;;;;5033781;28;20127;-67
2021/04/17 04:30:19;;;;;;;14.85;11.27;;;;;;;;;;5033984;28;20100;-66
2021/04/17 04:32:45;;;;;;;17.15;10.98;;;;;;;;;;5034760;28;20046;-67
2021/04/17 04:35:12;;;;;;;14.48;11.02;;;;;;;;;;5034408;28;20071;-66
2021/04/17 04:37:38;;;;;;;13.63;11.27;;;;;;;;;;5033861;28;20080;-66
2021/04/17 04:40:05;;;;;;;15.00;10.95;;;;;;;;;;5034146;28;20045;-67
2021/04/17 04:42:32;;;;;;;14.18;10.55;;;;;;;;;;5034121;28;20096;-67
2021/04/17 04:44:59;;;;;;;14.32;11.00;;;;;;;;;;5034029;28;20084;-67
2021/04/17 04:47:25;;;;;;;17.77;11.57;;;;;;;;;;5033778;28;20083;-67
2021/04/17 04:49:51;;;;;;;15.82;10.43;;;;;;;;;;5034179;28;20129;-67
2021/04/17 04:52:19;;;;;;;15.18;10.75;;;;;;;;;;5033743;28;20053;-67
2021/04/17 04:54:45;;;;;;;17.45;12.35;;;;;;;;;;4962976;28;20133;-67
2021/04/17 04:57:11;;;;;;;15.20;11.43;;;;;;;;;;5053180;28;20052;-66
2021/04/17 04:59:38;;;;;;;14.15;11.38;;;;;;;;;;5053501;28;20079;-66
2021/04/17 05:02:04;;;;;;;15.48;12.30;;;;;;;;;;5050921;28;20041;-67
2021/04/17 05:04:30;;;;;;;15.85;11.57;;;;;;;;;;5053325;28;20049;-66
2021/04/17 05:06:56;;;;;;;14.18;11.85;;;;;;;;;;5053275;28;20044;-67
2021/04/17 05:09:22;;;;;;;19.95;12.00;;;;;;;;;;5053710;28;20053;-67
2021/04/17 05:11:49;;;;;;;13.57;11.23;;;;;;;;;;5053698;28;20048;-67
2021/04/17 05:14:15;;;;;;;14.98;11.52;;;;;;;;;;5053467;28;20045;-67
2021/04/17 05:16:41;;;;;;;13.52;10.75;;;;;;;;;;5052805;28;20057;-67
2021/04/17 05:19:07;;;;;;;15.43;11.40;;;;;;;;;;5053449;28;20518;-67
2021/04/17 05:21:33;;;;;;;11.75;10.27;;;;;;;;;;5053119;28;20492;-67
2021/04/17 05:24:00;;;;;;;16.10;11.20;;;;;;;;;;5053473;28;20044;-67
2021/04/17 05:26:27;;;;;;;14.07;11.00;;;;;;;;;;5051491;28;20053;-67
2021/04/17 05:28:53;;;;;;;15.10;11.60;;;;;;;;;;5053228;28;20052;-67
2021/04/17 05:31:19;;;;;;;15.05;10.55;;;;;;;;;;5053230;28;20496;-67
2021/04/17 05:33:46;;;;;;;18.17;11.85;;;;;;;;;;5053273;28;20449;-67
2021/04/17 05:36:12;;;;;;;15.05;12.00;;;;;;;;;;5052479;28;20044;-67
2021/04/17 05:38:38;;;;;;;14.13;10.70;;;;;;;;;;5051718;28;20081;-67
2021/04/17 05:41:04;;;;;;;14.48;11.15;;;;;;;;;;5048125;28;20095;-67
2021/04/17 05:43:30;;;;;;;12.10;10.38;;;;;;;;;;5020408;28;20083;-67
2021/04/17 05:45:56;;;;;;;13.68;11.02;;;;;;;;;;5033877;28;20045;-67
2021/04/17 05:48:23;;;;;;;12.57;10.10;;;;;;;;;;5033433;28;20065;-66
2021/04/17 05:50:49;;;;;;;15.15;11.40;;;;;;;;;;5024699;28;20046;-67
2021/04/17 05:53:15;;;;;;;14.63;11.20;;;;;;;;;;5013108;28;20116;-67
2021/04/17 05:55:41;;;;;;;14.07;11.23;;;;;;;;;;5012629;28;20515;-67
2021/04/17 05:58:07;;;;;;;13.07;10.90;;;;;;;;;;5013024;28;20046;-67
2021/04/17 06:00:33;;;;;;;17.15;11.15;;;;;;;;;;5012912;28;20131;-67
2021/04/17 06:03:01;;;;;;;15.60;11.27;;;;;;;;;;5014237;28;20100;-67
2021/04/17 06:05:28;;;;;;;16.23;12.55;;;;;;;;;;5030802;28;20068;-66
2021/04/17 06:07:54;;;;;;;13.27;11.15;;;;;;;;;;5032592;28;20049;-67
2021/04/17 06:10:20;;;;;;;15.50;11.18;;;;;;;;;;5028577;28;20104;-67
2021/04/17 06:12:46;;;;;;;12.98;11.30;;;;;;;;;;5012722;28;20112;-67
2021/04/17 06:15:13;;;;;;;14.20;10.55;;;;;;;;;;5023176;28;20053;-68
2021/04/17 06:17:40;;;;;;;14.98;10.68;;;;;;;;;;5030874;28;20177;-68
2021/04/17 06:20:08;;;;;;;14.23;10.73;;;;;;;;;;5032975;28;20057;-68
2021/04/17 06:22:34;;;;;;;13.80;11.05;;;;;;;;;;5026106;28;20050;-68
2021/04/17 06:25:00;;;;;;;15.20;11.63;;;;;;;;;;5009306;28;20108;-68
2021/04/17 06:27:26;;;;;;;16.17;12.35;;;;;;;;;;5010080;28;20109;-68
2021/04/17 06:29:52;;;;;;;15.45;11.80;;;;;;;;;;5010392;28;20050;-68
2021/04/17 06:32:18;;;;;;;17.63;11.93;;;;;;;;;;5010541;28;20046;-68
2021/04/17 06:34:45;;;;;;;19.30;12.05;;;;;;;;;;5010514;28;20061;-67
2021/04/17 06:37:11;;;;;;;14.45;11.13;;;;;;;;;;5009350;28;20054;-68
2021/04/17 06:39:37;;;;;;;15.35;11.50;;;;;;;;;;5010208;28;20501;-69
2021/04/17 06:42:03;;;;;;;17.65;12.05;;;;;;;;;;5029612;28;20046;-68
2021/04/17 06:44:29;;;;;;;16.55;11.35;;;;;;;;;;5012486;28;20594;-68
2021/04/17 06:46:55;;;;;;;17.00;10.70;;;;;;;;;;5028164;28;20096;-68
2021/04/17 06:49:22;;;;;;;15.02;11.02;;;;;;;;;;5027781;28;20555;-68
2021/04/17 06:51:49;;;;;;;19.48;11.82;;;;;;;;;;5008990;28;20084;-68
2021/04/17 06:54:18;;;;;;;16.60;11.65;;;;;;;;;;5009052;28;20086;-68
2021/04/17 06:56:45;;;;;;;15.32;11.40;;;;;;;;;;5009750;28;20193;-68
2021/04/17 06:59:12;;;;;;;16.52;11.73;;;;;;;;;;5008959;28;20057;-68
2021/04/17 07:01:39;;;;;;;15.05;12.32;;;;;;;;;;4992579;28;20107;-68
2021/04/17 07:04:05;;;;;;;17.58;11.68;;;;;;;;;;5009714;28;20425;-68
2021/04/17 07:06:32;;;;;;;15.38;11.05;;;;;;;;;;5009262;28;20058;-67
2021/04/17 07:08:58;;;;;;;16.67;12.27;;;;;;;;;;5010422;28;20151;-68
2021/04/17 07:11:24;;;;;;;13.70;10.98;;;;;;;;;;5022592;28;20131;-67
2021/04/17 07:14:10;;;;;;;16.58;11.63;;;;;;;;;;5029790;28;20050;-68
2021/04/17 07:16:55;;;;;;;15.52;12.00;;;;;;;;;;5028700;28;20115;-68
2021/04/17 07:19:23;;;;;;;15.82;11.23;;;;;;;;;;5029707;28;20131;-67
2021/04/17 07:21:50;;;;;;;12.50;10.73;;;;;;;;;;5029675;28;20089;-68
2021/04/17 07:24:23;;;;;;;15.27;10.60;;;;;;;;;;5029437;28;20049;-68
2021/04/17 07:26:49;;;;;;;15.48;11.27;;;;;;;;;;5027976;28;20496;-69
2021/04/17 07:29:15;;;;;;;14.73;10.10;;;;;;;;;;5018554;28;20046;-71
2021/04/17 07:31:54;;;;;;;15.07;10.25;;;;;;;;;;5009685;28;20115;-68
2021/04/17 07:34:24;;;;;;;15.32;11.02;;;;;;;;;;5009804;28;20137;-68
2021/04/17 07:36:53;;;;;;;14.85;10.88;;;;;;;;;;5008125;28;20116;-68
2021/04/17 07:39:37;;;;;;;13.25;10.38;;;;;;;;;;5018859;28;20500;-66
2021/04/17 07:42:06;;;;;;;12.95;10.10;;;;;;;;;;5031130;28;20495;-68
2021/04/17 07:44:43;;;;;;;14.25;11.15;;;;;;;;;;5031110;28;20099;-66
2021/04/17 07:47:30;;;;;;;12.57;9.32;;;;;;;;;;5030591;28;20091;-67
2021/04/17 07:50:07;;;;;;;10.55;9.07;;;;;;;;;;5029609;28;20060;-66
2021/04/17 07:52:34;;;;;;;13.02;9.45;;;;;;;;;;5030523;28;20057;-67
2021/04/17 07:55:03;;;;;;;10.57;8.85;;;;;;;;;;5030606;28;20084;-67
2021/04/17 07:57:33;;;;;;;17.90;10.13;;;;;;;;;;5020581;28;20429;-67
2021/04/17 07:59:59;;;;;;;11.88;9.27;;;;;;;;;;5009470;28;20108;-67
2021/04/17 08:02:26;;;;;;;12.35;10.25;;;;;;;;;;5010491;28;20470;-67
2021/04/17 08:04:53;;;;;;;13.02;9.60;;;;;;;;;;5014448;28;20152;-68
2021/04/17 08:07:19;;;;;;;13.65;9.40;;;;;;;;;;5013691;28;20493;-68
2021/04/17 08:09:47;;;;;;;11.23;9.07;;;;;;;;;;5013463;28;20145;-68
2021/04/17 08:12:16;;;;;;;11.25;9.07;;;;;;;;;;5014687;28;20104;-69
2021/04/17 08:14:42;;;;;;;11.60;8.60;;;;;;;;;;5017187;28;20050;-70
2021/04/17 08:17:09;;;;;;;11.32;6.97;;;;;;;;;;5014024;28;20100;-68
2021/04/17 08:19:37;;;;;;;12.07;7.78;;;;;;;;;;5014681;28;20141;-68
2021/04/17 08:22:03;;;;;;;10.70;7.75;;;;;;;;;;5013298;28;20116;-67
2021/04/17 08:24:30;;;;;;;8.85;7.07;;;;;;;;;;5014335;28;20049;-66
2021/04/17 08:26:58;;;;;;;11.82;8.63;;;;;;;;;;5013973;28;20104;-68
2021/04/17 08:29:45;;;;;;;8.68;7.15;;;;;;;;;;5018291;28;20081;-67
2021/04/17 08:32:33;;;;;;;11.15;7.38;;;;;;;;;;5033786;28;20073;-67
2021/04/17 08:35:01;;;;;;;8.75;7.28;;;;;;;;;;5034147;28;20049;-66
2021/04/17 08:37:30;;;;;;;8.75;7.13;;;;;;;;;;5026414;28;20497;-68
2021/04/17 08:39:56;;;;;;;11.02;7.28;;;;;;;;;;5014326;28;20136;-67
2021/04/17 08:42:43;;;;;;;11.20;7.28;;;;;;;;;;4996969;28;20096;-68
2021/04/17 08:45:11;;;;;;;11.52;8.00;;;;;;;;;;5014028;28;20096;-68
2021/04/17 08:47:53;;;;;;;11.30;7.63;;;;;;;;;;5013847;28;20104;-69
2021/04/17 08:50:41;;;;;;;8.82;6.72;;;;;;;;;;5014090;28;20108;-68
2021/04/17 08:53:17;;;;;;;9.35;6.88;;;;;;;;;;5020786;28;20462;-67
2021/04/17 08:55:49;;;;;;;11.00;7.28;;;;;;;;;;5032603;28;20049;-68
2021/04/17 08:58:20;;;;;;;7.03;6.30;;;;;;;;;;5033651;28;20049;-68
2021/04/17 09:00:52;;;;;;;8.80;6.80;;;;;;;;;;5033685;28;20049;-68
2021/04/17 09:03:35;;;;;;;8.57;5.93;;;;;;;;;;5033710;28;20053;-68
2021/04/17 09:06:03;;;;;;;8.05;5.65;;;;;;;;;;5042043;23;20033;-74
2021/04/17 09:08:29;;;;;;;8.40;6.47;;;;;;;;;;5038009;28;20122;-75
2021/04/17 09:10:57;;;;;;;9.35;5.50;;;;;;;;;;5033010;28;20099;-74
2021/04/17 09:13:25;;;;;;;7.70;5.47;;;;;;;;;;5031326;28;20053;-74
2021/04/17 09:15:56;;;;;;;7.50;5.68;;;;;;;;;;5029808;28;20095;-74
2021/04/17 09:21:04;;;;;;;9.07;5.25;;;;;;;;;;5013610;28;20053;-74
2021/04/17 09:23:40;;;;;;;5.40;4.50;;;;;;;;;;5013544;28;20054;-76
2021/04/17 09:26:09;;;;;;;7.35;5.22;;;;;;;;;;5012400;28;20054;-75
2021/04/17 09:28:39;;;;;;;7.65;5.72;;;;;;;;;;4995820;28;20128;-74
2021/04/17 09:31:09;;;;;;;9.45;5.63;;;;;;;;;;5013109;28;20134;-75
2021/04/17 09:33:36;;;;;;;9.50;6.00;;;;;;;;;;5012118;28;20516;-75
2021/04/17 09:36:02;;;;;;;9.88;6.60;;;;;;;;;;5012787;28;20129;-75
2021/04/17 09:38:30;;;;;;;11.02;5.80;;;;;;;;;;5024432;28;20049;-75
2021/04/17 09:40:57;;;;;;;8.85;6.15;;;;;;;;;;5032731;28;20048;-77
2021/04/17 09:43:31;;;;;;;11.15;6.00;;;;;;;;;;5015377;28;20049;-75
2021/04/17 09:46:03;;;;;;;8.40;6.70;;;;;;;;;;5031113;28;20050;-75
2021/04/17 09:48:38;;;;;;;8.93;7.03;;;;;;;;;;5031637;28;20080;-75
2021/04/17 09:51:18;;;;;;;9.48;6.35;;;;;;;;;;5032791;28;20095;-75
2021/04/17 09:53:44;;;;;;;9.00;6.82;;;;;;;;;;5031445;28;20049;-75
2021/04/17 09:56:12;;;;;;;12.48;6.32;;;;;;;;;;5030698;28;20103;-75
2021/04/17 09:58:43;;;;;;;7.18;5.65;;;;;;;;;;5031242;28;20060;-75
2021/04/17 10:01:16;;;;;;;8.32;6.30;;;;;;;;;;5015314;28;20081;-74
2021/04/17 10:04:44;;;;;;;7.13;6.07;;;;;;;;;;5030498;28;20053;-75
2021/04/17 10:07:28;;;;;;;10.85;6.93;;;;;;;;;;4919290;28;20058;-74
2021/04/17 10:10:12;;;;;;;7.72;6.25;;;;;;;;;;5017592;28;20084;-75
2021/04/17 10:13:00;;;;;;;6.47;5.60;;;;;;;;;;5034959;28;20049;-74
2021/04/17 10:15:36;;;;;;;8.88;6.57;;;;;;;;;;5037683;28;20454;-74
2021/04/17 10:18:06;;;;;;;7.68;6.65;;;;;;;;;;5037930;28;20103;-72
2021/04/17 10:20:42;;;;;;;8.77;6.40;;;;;;;;;;5033622;28;20402;-70
2021/04/17 10:23:12;;;;;;;7.30;6.05;;;;;;;;;;5036949;28;20049;-71
2021/04/17 10:25:44;;;;;;;7.93;6.70;;;;;;;;;;5032036;28;20045;-71
2021/04/17 10:28:14;;;;;;;7.68;6.35;;;;;;;;;;5039811;28;20128;-71
2021/04/17 10:30:42;;;;;;;6.13;5.47;;;;;;;;;;5036118;28;20108;-73
2021/04/17 10:33:16;;;;;;;6.65;5.25;;;;;;;;;;5033928;28;20156;-71
2021/04/17 10:35:43;;;;;;;8.43;6.13;;;;;;;;;;5018498;28;20484;-71
2021/04/17 10:38:09;;;;;;;9.02;6.03;;;;;;;;;;5019199;28;20118;-71
2021/04/17 10:40:35;;;;;;;7.15;5.82;;;;;;;;;;5036198;28;20084;-71
2021/04/17 10:43:04;;;;;;;7.35;5.57;;;;;;;;;;5032468;28;20076;-70
2021/04/17 10:45:30;;;;;;;6.30;4.43;;;;;;;;;;5034700;28;20134;-69
2021/04/17 10:48:00;;;;;;;6.68;5.53;;;;;;;;;;5038201;28;20053;-70
2021/04/17 10:50:27;;;;;;;9.75;5.43;;;;;;;;;;5035974;28;20558;-71
2021/04/17 10:52:56;;;;;;;6.10;5.10;;;;;;;;;;5017060;28;20083;-72
2021/04/17 10:55:37;;;;;;;5.63;4.38;;;;;;;;;;5033634;28;20122;-71
2021/04/17 10:58:03;;;;;;;6.63;4.78;;;;;;;;;;5040767;28;20154;-71
2021/04/17 11:00:31;;;;;;;5.03;4.32;;;;;;;;;;5032629;28;20085;-70
2021/04/17 11:02:58;;;;;;;5.45;4.63;;;;;;;;;;5035740;28;20052;-71
2021/04/17 11:05:29;;;;;;;11.30;5.32;;;;;;;;;;5033616;28;20107;-71
2021/04/17 11:08:00;;;;;;;6.82;4.30;;;;;;;;;;5042424;28;20080;-71
2021/04/17 11:10:34;;;;;;;5.20;3.95;;;;;;;;;;5035266;28;20076;-72
2021/04/17 11:13:00;;;;;;;5.63;3.85;;;;;;;;;;5032141;28;20049;-71
2021/04/17 11:15:29;;;;;;;5.63;3.85;;;;;;;;;;5037749;28;20072;-72
2021/04/17 11:18:17;;;;;;;7.85;3.72;;;;;;;;;;5034743;28;20065;-72
2021/04/17 11:20:43;;;;;;;4.75;3.97;;;;;;;;;;5032492;28;20049;-72
2021/04/17 11:23:35;;;;;;;5.80;4.10;;;;;;;;;;5038142;28;20068;-72
2021/04/17 11:26:02;;;;;;;4.55;3.40;;;;;;;;;;5037653;28;20131;-72
2021/04/17 11:28:29;;;;;;;4.40;3.92;;;;;;;;;;5033706;28;20076;-73
2021/04/17 11:30:55;;;;;;;8.32;4.38;;;;;;;;;;5036072;28;20049;-73
2021/04/17 11:33:22;;;;;;;4.95;4.00;;;;;;;;;;5033541;28;20522;-73
2021/04/17 11:35:48;;;;;;;10.32;4.30;;;;;;;;;;5036688;28;20064;-72
2021/04/17 11:38:15;;;;;;;5.78;4.10;;;;;;;;;;5022093;28;20050;-72
2021/04/17 11:40:41;;;;;;;5.22;4.30;;;;;;;;;;5041904;28;20110;-72
2021/04/17 11:43:07;;;;;;;5.72;3.55;;;;;;;;;;5036600;28;20077;-71
2021/04/17 11:45:33;;;;;;;5.45;3.60;;;;;;;;;;5038543;28;20107;-72
2021/04/17 11:47:59;;;;;;;5.90;3.53;;;;;;;;;;5040017;28;20132;-72
2021/04/17 11:50:26;;;;;;;4.30;3.78;;;;;;;;;;5023035;28;20134;-72
2021/04/17 11:52:52;;;;;;;6.05;4.07;;;;;;;;;;5036294;28;20058;-72
2021/04/17 11:55:18;;;;;;;4.07;3.67;;;;;;;;;;5037859;28;20137;-72
2021/04/17 11:57:44;;;;;;;4.22;3.40;;;;;;;;;;5040980;28;20570;-71
2021/04/17 12:00:11;;;;;;;6.32;3.70;;;;;;;;;;5038168;28;20502;-71
2021/04/17 12:02:40;;;;;;;4.70;3.58;;;;;;;;;;5036795;28;20544;-74
2021/04/17 12:05:07;;;;;;;4.35;3.90;;;;;;;;;;5035660;28;20057;-72
2021/04/17 12:07:33;;;;;;;6.47;3.90;;;;;;;;;;5038260;28;20079;-75
2021/04/17 12:09:59;;;;;;;6.43;3.60;;;;;;;;;;5036194;28;20058;-72
2021/04/17 12:12:29;;;;;;;6.82;4.32;;;;;;;;;;5040716;28;20076;-75
2021/04/17 12:14:55;;;;;;;4.60;3.22;;;;;;;;;;5038528;28;20143;-73
2021/04/17 12:17:21;;;;;;;8.05;4.50;;;;;;;;;;5029975;28;20049;-73
2021/04/17 12:19:48;;;;;;;8.68;4.30;;;;;;;;;;5022590;28;20077;-75
2021/04/17 12:22:14;;;;;;;4.53;3.22;;;;;;;;;;5003524;28;20561;-74
2021/04/17 12:24:43;;;;;;;5.25;3.63;;;;;;;;;;5035640;28;20072;-75
2021/04/17 12:27:09;;;;;;;6.38;3.65;;;;;;;;;;5039485;28;20057;-73
2021/04/17 12:29:36;;;;;;;6.90;3.38;;;;;;;;;;5044069;28;20594;-75
2021/04/17 12:32:02;;;;;;;3.38;2.40;;;;;;;;;;5040310;28;20136;-74
2021/04/17 12:34:29;;;;;;;3.55;2.15;;;;;;;;;;5036948;28;20595;-75
2021/04/17 12:36:57;;;;;;;3.67;2.28;;;;;;;;;;5030606;28;20111;-77
2021/04/17 12:39:24;;;;;;;3.40;2.20;;;;;;;;;;5021370;28;20110;-74
2021/04/17 12:41:50;;;;;;;4.45;2.25;;;;;;;;;;5037087;28;20103;-74
2021/04/17 12:44:16;;;;;;;4.07;2.80;;;;;;;;;;5038652;28;20495;-75
2021/04/17 12:46:42;;;;;;;3.15;2.72;;;;;;;;;;5036417;28;20135;-72
2021/04/17 12:49:09;;;;;;;3.70;2.40;;;;;;;;;;5039204;28;20504;-74
2021/04/17 12:51:35;;;;;;;3.38;3.05;;;;;;;;;;5042165;28;20048;-74
2021/04/17 12:54:03;;;;;;;4.18;2.15;;;;;;;;;;5019816;28;20563;-76
2021/04/17 12:56:30;;;;;;;3.60;2.35;;;;;;;;;;5021783;28;20115;-77
2021/04/17 12:58:56;;;;;;;3.38;2.50;;;;;;;;;;5009871;28;20057;-76
2021/04/17 13:01:23;;;;;;;4.45;2.08;;;;;;;;;;5013938;28;20569;-74
2021/04/17 13:03:49;;;;;;;4.70;2.40;;;;;;;;;;5041861;28;20057;-73
2021/04/17 13:06:16;;;;;;;5.50;2.53;;;;;;;;;;5041937;28;20084;-75
2021/04/17 13:08:42;;;;;;;2.45;2.05;;;;;;;;;;5039216;28;20145;-73
2021/04/17 13:11:08;;;;;;;3.35;2.47;;;;;;;;;;5039453;28;20045;-72
2021/04/17 13:13:34;;;;;;;4.25;2.10;;;;;;;;;;5039872;28;20466;-73
2021/04/17 13:16:03;;;;;;;4.50;2.38;;;;;;;;;;5042698;28;20144;-72
2021/04/17 13:18:30;;;;;;;3.58;2.10;;;;;;;;;;5042481;28;20068;-75
2021/04/17 13:20:57;;;;;;;3.72;2.53;;;;;;;;;;5023874;28;20446;-76
2021/04/17 13:23:23;;;;;;;3.30;2.17;;;;;;;;;;5038361;28;20061;-74
2021/04/17 13:26:12;;;;;;;3.88;2.65;;;;;;;;;;5023853;28;20570;-74
2021/04/17 13:28:48;;;;;;;2.72;2.30;;;;;;;;;;5023376;28;20061;-74
2021/04/17 13:31:41;;;;;;;4.32;2.40;;;;;;;;;;5024771;28;20571;-75
2021/04/17 13:34:08;;;;;;;5.05;2.95;;;;;;;;;;5039497;28;20049;-77
2021/04/17 13:36:34;;;;;;;2.47;2.28;;;;;;;;;;5021439;28;20458;-74
2021/04/17 13:39:07;;;;;;;3.75;2.30;;;;;;;;;;5036136;28;20061;-74
2021/04/17 13:41:49;;;;;;;3.45;2.25;;;;;;;;;;5025439;28;20144;-73
2021/04/17 13:44:15;;;;;;;5.38;2.33;;;;;;;;;;5039017;28;20047;-74
2021/04/17 13:46:41;;;;;;;4.30;2.53;;;;;;;;;;5013096;28;20080;-74
2021/04/17 13:49:43;;;;;;;3.97;2.45;;;;;;;;;;5013877;28;20457;-74
2021/04/17 13:52:13;;;;;;;2.70;1.85;;;;;;;;;;5024941;28;20105;-77
2021/04/17 13:54:45;;;;;;;2.45;2.08;;;;;;;;;;5037675;28;20542;-72
2021/04/17 13:57:11;;;;;;;3.92;2.13;;;;;;;;;;5039118;28;20060;-72
2021/04/17 13:59:38;;;;;;;2.55;2.00;;;;;;;;;;5038327;28;20050;-73
2021/04/17 14:02:04;;;;;;;3.65;1.77;;;;;;;;;;5042763;28;20098;-77
2021/04/17 14:04:30;;;;;;;2.42;2.20;;;;;;;;;;5021090;28;20060;-75
2021/04/17 14:06:57;;;;;;;6.90;2.13;;;;;;;;;;5034446;28;20521;-74
2021/04/17 14:09:23;;;;;;;5.25;2.60;;;;;;;;;;5037082;28;20045;-73
2021/04/17 14:11:49;;;;;;;2.75;1.98;;;;;;;;;;5037856;28;20049;-74
2021/04/17 14:14:15;;;;;;;4.47;2.00;;;;;;;;;;5034728;28;20076;-71
2021/04/17 14:16:42;;;;;;;2.42;2.13;;;;;;;;;;5069460;23;20069;-78
2021/04/17 14:22:19;;;;;;;3.97;2.45;;;;;;;;;;5036537;28;20048;-77
2021/04/17 14:24:45;;;;;;;6.25;2.30;;;;;;;;;;5011374;28;20067;-76
2021/04/17 14:27:27;;;;;;;3.55;2.40;;;;;;;;;;5134557;23;20412;-78
2021/04/17 14:29:53;;;;;;;2.65;2.08;;;;;;;;;;5009096;28;20087;-76
2021/04/17 14:32:22;;;;;;;3.72;2.33;;;;;;;;;;5017848;28;20050;-76
2021/04/17 14:38:26;;;;;;;4.45;2.60;;;;;;;;;;5357616;23;20119;-76
2021/04/17 14:40:52;;;;;;;3.17;2.00;;;;;;;;;;4897234;29;20063;-71
2021/04/17 14:43:20;;;;;;;3.67;1.95;;;;;;;;;;4913959;29;20480;-71
2021/04/17 14:45:46;;;;;;;2.00;1.67;;;;;;;;;;4878209;29;20111;-72
2021/04/17 14:48:13;;;;;;;3.05;1.83;;;;;;;;;;4906507;29;20392;-72
2021/04/17 14:50:39;;;;;;;5.03;2.00;;;;;;;;;;4905082;29;20086;-72